This is the latest recevied weather packets stored in our database for station/object AE0NK. If no packets are shown the sender has not sent any weather packets the latest 1 day(s).
| Time | Temp. | Humidity | Pressure | Rain* | Wind** | Luminosity | Snow |
|---|---|---|---|---|---|---|---|
| 1777989502 | 10° C | 45% | 1010.2 hPa | 0 mm | 0.89 m/s, 340° | 332 W/m² | - |
| 1777989200 | 10° C | 48% | 1010.2 hPa | 0 mm | 0.89 m/s, 315° | 271 W/m² | - |
| 1777988899 | 10° C | 52% | 1010.1 hPa | 0 mm | 0.45 m/s, 333° | 269 W/m² | - |
| 1777988596 | 10° C | 57% | 1010.1 hPa | 0 mm | 0.45 m/s, 294° | 269 W/m² | - |
| 1777988294 | 10° C | 54% | 1010.2 hPa | 0 mm | 0.89 m/s, 295° | 244 W/m² | - |
| 1777987993 | 10° C | 57% | 1010.2 hPa | 0 mm | 0 m/s | 156 W/m² | - |
| 1777987692 | 9.44° C | 56% | 1010.2 hPa | 0 mm | 0 m/s | 174 W/m² | - |
| 1777987408 | 9.44° C | 58% | 1010.4 hPa | 0 mm | 0 m/s | 171 W/m² | - |
| 1777987104 | 9.44° C | 59% | 1010.6 hPa | 0 mm | 0 m/s | 155 W/m² | - |
| 1777986800 | 8.89° C | 58% | 1010.8 hPa | 0 mm | 0.45 m/s, 298° | 137 W/m² | - |
| 1777986497 | 8.89° C | 57% | 1010.9 hPa | 0 mm | 0.45 m/s, 298° | 100 W/m² | - |
| 1777986196 | 8.89° C | 60% | 1010.9 hPa | 0 mm | 0.45 m/s, 238° | 120 W/m² | - |
| 1777985910 | 8.89° C | 60% | 1010.9 hPa | 0 mm | 0 m/s | 100 W/m² | - |
| 1777985609 | 8.89° C | 59% | 1011 hPa | 0 mm | 0 m/s | 63 W/m² | - |
| 1777985305 | 8.33° C | 60% | 1011.1 hPa | 0 mm | 0 m/s | 77 W/m² | - |
| 1777985004 | 8.33° C | 59% | 1011.1 hPa | 0 mm | 0 m/s | 47 W/m² | - |
| 1777984703 | 8.33° C | 60% | 1011.2 hPa | 0 mm | 0 m/s | 40 W/m² | - |
| 1777984099 | 8.33° C | 59% | 1011.2 hPa | 0 mm | 0.45 m/s, 234° | 76 W/m² | - |
| 1777983796 | 8.33° C | 62% | 1011.1 hPa | 0 mm | 0 m/s | 88 W/m² | - |
| 1777983493 | 8.33° C | 62% | 1011.4 hPa | 0 mm | 0 m/s | 69 W/m² | - |
| 1777983210 | 8.33° C | 60% | 1011.6 hPa | 0 mm | 0 m/s | 40 W/m² | - |
| 1777982908 | 8.33° C | 60% | 1011.4 hPa | 0 mm | 0 m/s | 28 W/m² | - |
| 1777982605 | 8.33° C | 56% | 1011.4 hPa | 0 mm | 0 m/s | 32 W/m² | - |
| 1777982299 | 8.33° C | 56% | 1011.3 hPa | 0 mm | 0 m/s | 33 W/m² | - |
| 1777981993 | 8.33° C | 55% | 1011.2 hPa | 0 mm | 0 m/s | 39 W/m² | - |
* Rain latest hour (hover to see other rain measurements)
** Current wind speed in m/s (hover to see current wind gust speed)